sensor_id;sensor_type;location;lat;lon;timestamp;pressure;altitude;pressure_sealevel;temperature;humidity
63033;BME280;49121;38.932;-9.018;2022-09-09T00:02:08;101741.22;;;20.39;93.07
63033;BME280;49121;38.932;-9.018;2022-09-09T00:04:31;101742.03;;;20.41;92.64
63033;BME280;49121;38.932;-9.018;2022-09-09T00:06:42;101744.94;;;20.35;92.13
63033;BME280;49121;38.932;-9.018;2022-09-09T00:09:18;101745.09;;;20.30;91.97
63033;BME280;49121;38.932;-9.018;2022-09-09T00:11:32;101734.63;;;20.24;92.08
63033;BME280;49121;38.932;-9.018;2022-09-09T00:13:43;101740.16;;;20.19;92.16
63033;BME280;49121;38.932;-9.018;2022-09-09T00:18:21;101744.91;;;20.11;92.33
63033;BME280;49121;38.932;-9.018;2022-09-09T00:22:46;101734.53;;;20.04;92.67
63033;BME280;49121;38.932;-9.018;2022-09-09T00:24:55;101738.19;;;20.01;92.86
63033;BME280;49121;38.932;-9.018;2022-09-09T00:27:03;101732.16;;;19.94;92.90
63033;BME280;49121;38.932;-9.018;2022-09-09T00:29:54;101737.44;;;19.96;93.05
63033;BME280;49121;38.932;-9.018;2022-09-09T00:32:17;101733.91;;;19.95;93.45
63033;BME280;49121;38.932;-9.018;2022-09-09T00:34:38;101737.50;;;19.94;93.51
63033;BME280;49121;38.932;-9.018;2022-09-09T00:40:18;101741.25;;;19.90;93.89
63033;BME280;49121;38.932;-9.018;2022-09-09T00:42:25;101737.63;;;19.91;94.09
63033;BME280;49121;38.932;-9.018;2022-09-09T00:44:56;101732.50;;;19.85;93.67
63033;BME280;49121;38.932;-9.018;2022-09-09T00:47:11;101727.28;;;19.82;93.95
63033;BME280;49121;38.932;-9.018;2022-09-09T00:51:30;101726.50;;;19.78;93.87
63033;BME280;49121;38.932;-9.018;2022-09-09T00:56:19;101723.13;;;19.73;94.44
63033;BME280;49121;38.932;-9.018;2022-09-09T00:58:21;101717.84;;;19.72;94.75
63033;BME280;49121;38.932;-9.018;2022-09-09T01:00:31;101728.53;;;19.72;94.44
63033;BME280;49121;38.932;-9.018;2022-09-09T01:02:53;101725.97;;;19.67;94.47
63033;BME280;49121;38.932;-9.018;2022-09-09T01:05:12;101721.66;;;19.63;94.59
63033;BME280;49121;38.932;-9.018;2022-09-09T01:07:30;101724.44;;;19.60;94.43
63033;BME280;49121;38.932;-9.018;2022-09-09T01:09:56;101719.16;;;19.58;94.48
63033;BME280;49121;38.932;-9.018;2022-09-09T01:12:02;101717.41;;;19.57;94.67
63033;BME280;49121;38.932;-9.018;2022-09-09T01:17:00;101720.72;;;19.64;95.04
63033;BME280;49121;38.932;-9.018;2022-09-09T01:19:32;101714.34;;;19.68;95.08
63033;BME280;49121;38.932;-9.018;2022-09-09T01:21:49;101699.19;;;19.70;94.91
63033;BME280;49121;38.932;-9.018;2022-09-09T01:28:26;101713.63;;;19.90;94.31
63033;BME280;49121;38.932;-9.018;2022-09-09T01:30:33;101711.59;;;19.96;94.13
63033;BME280;49121;38.932;-9.018;2022-09-09T01:34:40;101715.91;;;20.00;93.56
63033;BME280;49121;38.932;-9.018;2022-09-09T01:37:03;101713.06;;;20.05;93.34
63033;BME280;49121;38.932;-9.018;2022-09-09T01:41:50;101705.44;;;20.18;93.53
63033;BME280;49121;38.932;-9.018;2022-09-09T01:43:54;101710.47;;;20.27;93.68
63033;BME280;49121;38.932;-9.018;2022-09-09T01:45:59;101707.56;;;20.33;93.19
63033;BME280;49121;38.932;-9.018;2022-09-09T01:48:01;101702.00;;;20.39;93.22
63033;BME280;49121;38.932;-9.018;2022-09-09T01:50:16;101705.22;;;20.48;93.30
63033;BME280;49121;38.932;-9.018;2022-09-09T01:52:21;101704.16;;;20.52;93.57
63033;BME280;49121;38.932;-9.018;2022-09-09T01:54:25;101699.53;;;20.57;93.57
63033;BME280;49121;38.932;-9.018;2022-09-09T02:07:49;101693.38;;;20.78;93.97
63033;BME280;49121;38.932;-9.018;2022-09-09T02:12:45;101697.31;;;20.90;94.13
63033;BME280;49121;38.932;-9.018;2022-09-09T02:14:55;101687.69;;;20.86;94.63
63033;BME280;49121;38.932;-9.018;2022-09-09T02:17:02;101705.16;;;20.95;94.81
63033;BME280;49121;38.932;-9.018;2022-09-09T02:19:25;101705.06;;;20.98;94.81
63033;BME280;49121;38.932;-9.018;2022-09-09T02:21:54;101709.41;;;21.00;95.08
63033;BME280;49121;38.932;-9.018;2022-09-09T02:23:59;101702.13;;;21.04;94.87
63033;BME280;49121;38.932;-9.018;2022-09-09T02:26:04;101708.16;;;21.09;94.79
63033;BME280;49121;38.932;-9.018;2022-09-09T02:28:07;101707.97;;;21.14;95.38
63033;BME280;49121;38.932;-9.018;2022-09-09T02:30:11;101708.66;;;21.19;95.26
63033;BME280;49121;38.932;-9.018;2022-09-09T02:32:21;101711.19;;;21.22;95.25
63033;BME280;49121;38.932;-9.018;2022-09-09T02:34:23;101700.44;;;21.23;95.25
63033;BME280;49121;38.932;-9.018;2022-09-09T02:36:29;101701.28;;;21.24;95.13
63033;BME280;49121;38.932;-9.018;2022-09-09T02:38:37;101711.59;;;21.33;94.95
63033;BME280;49121;38.932;-9.018;2022-09-09T02:40:44;101712.38;;;21.37;94.44
63033;BME280;49121;38.932;-9.018;2022-09-09T02:42:47;101713.16;;;21.39;93.97
63033;BME280;49121;38.932;-9.018;2022-09-09T02:44:48;101705.19;;;21.37;94.05
63033;BME280;49121;38.932;-9.018;2022-09-09T02:47:10;101715.63;;;21.45;93.94
63033;BME280;49121;38.932;-9.018;2022-09-09T02:51:48;101714.66;;;21.46;94.04
63033;BME280;49121;38.932;-9.018;2022-09-09T02:56:27;101710.72;;;21.55;93.82
63033;BME280;49121;38.932;-9.018;2022-09-09T02:58:32;101711.72;;;21.52;93.77
63033;BME280;49121;38.932;-9.018;2022-09-09T03:00:39;101714.41;;;21.52;93.55
63033;BME280;49121;38.932;-9.018;2022-09-09T03:02:41;101714.22;;;21.57;93.62
63033;BME280;49121;38.932;-9.018;2022-09-09T03:04:42;101711.53;;;21.57;93.59
63033;BME280;49121;38.932;-9.018;2022-09-09T03:06:47;101710.59;;;21.58;93.93
63033;BME280;49121;38.932;-9.018;2022-09-09T03:08:52;101698.13;;;21.57;93.90
63033;BME280;49121;38.932;-9.018;2022-09-09T03:10:58;101699.94;;;21.56;94.28
63033;BME280;49121;38.932;-9.018;2022-09-09T03:13:03;101699.88;;;21.58;93.78
63033;BME280;49121;38.932;-9.018;2022-09-09T03:15:13;101697.22;;;21.58;94.02
63033;BME280;49121;38.932;-9.018;2022-09-09T03:17:15;101698.94;;;21.59;93.70
63033;BME280;49121;38.932;-9.018;2022-09-09T03:19:24;101704.28;;;21.59;93.78
63033;BME280;49121;38.932;-9.018;2022-09-09T03:21:25;101693.72;;;21.56;93.85
63033;BME280;49121;38.932;-9.018;2022-09-09T03:23:26;101694.59;;;21.56;94.08
63033;BME280;49121;38.932;-9.018;2022-09-09T03:25:26;101693.66;;;21.57;94.52
63033;BME280;49121;38.932;-9.018;2022-09-09T03:27:29;101695.44;;;21.57;94.18
63033;BME280;49121;38.932;-9.018;2022-09-09T03:29:30;101696.25;;;21.59;93.76
63033;BME280;49121;38.932;-9.018;2022-09-09T03:31:34;101700.69;;;21.60;93.78
63033;BME280;49121;38.932;-9.018;2022-09-09T03:33:37;101699.75;;;21.61;94.02
63033;BME280;49121;38.932;-9.018;2022-09-09T03:35:45;101697.94;;;21.61;93.88
63033;BME280;49121;38.932;-9.018;2022-09-09T03:37:49;101698.72;;;21.63;93.64
63033;BME280;49121;38.932;-9.018;2022-09-09T03:39:51;101698.69;;;21.65;93.41
63033;BME280;49121;38.932;-9.018;2022-09-09T03:42:13;101701.28;;;21.67;93.71
63033;BME280;49121;38.932;-9.018;2022-09-09T03:44:33;101702.22;;;21.65;93.71
63033;BME280;49121;38.932;-9.018;2022-09-09T03:46:34;101704.84;;;21.67;93.29
63033;BME280;49121;38.932;-9.018;2022-09-09T03:48:35;101699.47;;;21.67;93.32
63033;BME280;49121;38.932;-9.018;2022-09-09T03:50:37;101698.63;;;21.67;93.43
63033;BME280;49121;38.932;-9.018;2022-09-09T03:52:40;101702.16;;;21.67;93.00
63033;BME280;49121;38.932;-9.018;2022-09-09T03:54:45;101705.69;;;21.68;93.35
63033;BME280;49121;38.932;-9.018;2022-09-09T03:56:53;101703.97;;;21.67;93.33
63033;BME280;49121;38.932;-9.018;2022-09-09T03:58:56;101698.47;;;21.90;92.16
63033;BME280;49121;38.932;-9.018;2022-09-09T04:01:02;101703.69;;;21.93;91.13
63033;BME280;49121;38.932;-9.018;2022-09-09T04:03:03;101704.22;;;22.01;89.90
63033;BME280;49121;38.932;-9.018;2022-09-09T04:05:04;101700.94;;;21.95;89.87
63033;BME280;49121;38.932;-9.018;2022-09-09T04:07:07;101704.50;;;21.75;90.43
63033;BME280;49121;38.932;-9.018;2022-09-09T04:09:08;101703.03;;;21.68;90.94
63033;BME280;49121;38.932;-9.018;2022-09-09T04:11:09;101705.81;;;21.85;90.27
63033;BME280;49121;38.932;-9.018;2022-09-09T04:13:13;101703.03;;;21.68;90.66
63033;BME280;49121;38.932;-9.018;2022-09-09T04:15:15;101706.88;;;21.62;91.29
63033;BME280;49121;38.932;-9.018;2022-09-09T04:17:17;101701.97;;;21.51;92.34
63033;BME280;49121;38.932;-9.018;2022-09-09T04:19:18;101704.72;;;21.50;92.70
63033;BME280;49121;38.932;-9.018;2022-09-09T04:21:18;101703.91;;;21.48;92.61
63033;BME280;49121;38.932;-9.018;2022-09-09T04:23:20;101710.25;;;21.45;93.00
63033;BME280;49121;38.932;-9.018;2022-09-09T04:25:21;101709.41;;;21.44;93.18
63033;BME280;49121;38.932;-9.018;2022-09-09T04:27:21;101711.19;;;21.44;93.35
63033;BME280;49121;38.932;-9.018;2022-09-09T04:29:22;101705.94;;;21.41;93.45
63033;BME280;49121;38.932;-9.018;2022-09-09T04:31:23;101713.06;;;21.42;93.02
63033;BME280;49121;38.932;-9.018;2022-09-09T04:33:26;101709.47;;;21.43;93.41
63033;BME280;49121;38.932;-9.018;2022-09-09T04:35:31;101707.75;;;21.40;93.31
63033;BME280;49121;38.932;-9.018;2022-09-09T04:37:35;101710.38;;;21.42;93.18
63033;BME280;49121;38.932;-9.018;2022-09-09T04:39:36;101706.72;;;21.44;92.77
63033;BME280;49121;38.932;-9.018;2022-09-09T04:41:37;101716.53;;;21.44;92.41
63033;BME280;49121;38.932;-9.018;2022-09-09T04:43:39;101715.63;;;21.45;92.32
63033;BME280;49121;38.932;-9.018;2022-09-09T04:45:43;101715.47;;;21.48;92.40
63033;BME280;49121;38.932;-9.018;2022-09-09T04:48:06;101716.28;;;21.50;92.20
63033;BME280;49121;38.932;-9.018;2022-09-09T04:50:25;101715.16;;;21.56;91.46
63033;BME280;49121;38.932;-9.018;2022-09-09T04:55:12;101703.91;;;21.48;91.39
63033;BME280;49121;38.932;-9.018;2022-09-09T04:57:14;101714.63;;;21.48;91.27
63033;BME280;49121;38.932;-9.018;2022-09-09T04:59:15;101712.75;;;21.50;91.41
63033;BME280;49121;38.932;-9.018;2022-09-09T05:01:22;101711.94;;;21.48;91.28
63033;BME280;49121;38.932;-9.018;2022-09-09T05:03:43;101717.94;;;21.53;90.70
63033;BME280;49121;38.932;-9.018;2022-09-09T05:05:47;101719.91;;;21.49;91.34
63033;BME280;49121;38.932;-9.018;2022-09-09T05:08:07;101714.63;;;21.48;91.42
63033;BME280;49121;38.932;-9.018;2022-09-09T05:10:33;101720.13;;;21.44;91.56
63033;BME280;49121;38.932;-9.018;2022-09-09T05:12:36;101711.28;;;21.41;91.24
63033;BME280;49121;38.932;-9.018;2022-09-09T05:14:37;101716.63;;;21.42;91.45
63033;BME280;49121;38.932;-9.018;2022-09-09T05:16:39;101722.72;;;21.46;91.07
63033;BME280;49121;38.932;-9.018;2022-09-09T05:18:40;101712.09;;;21.44;91.01
63033;BME280;49121;38.932;-9.018;2022-09-09T05:23:14;101718.34;;;21.43;91.05
63033;BME280;49121;38.932;-9.018;2022-09-09T05:25:15;101711.88;;;21.49;90.87
63033;BME280;49121;38.932;-9.018;2022-09-09T05:27:17;101713.22;;;21.37;89.83
63033;BME280;49121;38.932;-9.018;2022-09-09T05:29:19;101703.75;;;21.51;88.30
63033;BME280;49121;38.932;-9.018;2022-09-09T05:31:20;101711.19;;;21.44;88.16
63033;BME280;49121;38.932;-9.018;2022-09-09T05:33:26;101707.19;;;21.54;87.19
63033;BME280;49121;38.932;-9.018;2022-09-09T05:35:27;101706.44;;;21.51;86.59
63033;BME280;49121;38.932;-9.018;2022-09-09T05:37:28;101710.94;;;21.50;86.55
63033;BME280;49121;38.932;-9.018;2022-09-09T05:39:30;101714.09;;;21.38;86.28
63033;BME280;49121;38.932;-9.018;2022-09-09T05:41:31;101708.06;;;21.33;86.51
63033;BME280;49121;38.932;-9.018;2022-09-09T05:43:34;101709.88;;;21.32;86.54
63033;BME280;49121;38.932;-9.018;2022-09-09T05:45:36;101704.72;;;21.50;85.31
63033;BME280;49121;38.932;-9.018;2022-09-09T05:50:16;101707.25;;;21.53;84.60
63033;BME280;49121;38.932;-9.018;2022-09-09T05:52:35;101713.66;;;21.49;84.24
63033;BME280;49121;38.932;-9.018;2022-09-09T05:54:38;101711.75;;;21.30;83.92
63033;BME280;49121;38.932;-9.018;2022-09-09T05:56:39;101715.53;;;21.24;84.35
63033;BME280;49121;38.932;-9.018;2022-09-09T05:58:41;101717.09;;;21.30;84.19
63033;BME280;49121;38.932;-9.018;2022-09-09T06:03:15;101719.44;;;21.17;84.19
63033;BME280;49121;38.932;-9.018;2022-09-09T06:05:17;101717.75;;;21.15;84.67
63033;BME280;49121;38.932;-9.018;2022-09-09T06:07:18;101716.94;;;21.13;84.50
63033;BME280;49121;38.932;-9.018;2022-09-09T06:09:19;101716.06;;;21.12;84.54
63033;BME280;49121;38.932;-9.018;2022-09-09T06:11:39;101712.66;;;21.09;84.69
63033;BME280;49121;38.932;-9.018;2022-09-09T06:13:41;101715.19;;;21.12;84.55
63033;BME280;49121;38.932;-9.018;2022-09-09T06:15:50;101710.38;;;21.20;84.06
63033;BME280;49121;38.932;-9.018;2022-09-09T06:17:55;101714.28;;;21.13;84.48
63033;BME280;49121;38.932;-9.018;2022-09-09T06:19:56;101711.41;;;21.17;83.92
63033;BME280;49121;38.932;-9.018;2022-09-09T06:21:57;101717.75;;;21.15;84.13
63033;BME280;49121;38.932;-9.018;2022-09-09T06:23:59;101707.09;;;21.13;84.09
63033;BME280;49121;38.932;-9.018;2022-09-09T06:26:09;101712.59;;;21.10;84.37
63033;BME280;49121;38.932;-9.018;2022-09-09T06:28:10;101706.03;;;21.17;84.68
63033;BME280;49121;38.932;-9.018;2022-09-09T06:30:11;101699.22;;;21.31;84.31
63033;BME280;49121;38.932;-9.018;2022-09-09T06:32:33;101700.53;;;21.20;84.80
63033;BME280;49121;38.932;-9.018;2022-09-09T06:34:39;101697.16;;;21.37;83.64
63033;BME280;49121;38.932;-9.018;2022-09-09T06:36:40;101711.28;;;21.42;83.12
63033;BME280;49121;38.932;-9.018;2022-09-09T06:38:42;101715.84;;;21.39;83.32
63033;BME280;49121;38.932;-9.018;2022-09-09T06:40:54;101716.84;;;21.36;83.22
63033;BME280;49121;38.932;-9.018;2022-09-09T06:42:59;101721.47;;;21.33;83.43
63033;BME280;49121;38.932;-9.018;2022-09-09T06:45:12;101718.59;;;21.37;83.27
63033;BME280;49121;38.932;-9.018;2022-09-09T06:47:22;101727.19;;;21.46;82.43
63033;BME280;49121;38.932;-9.018;2022-09-09T06:49:24;101727.88;;;21.51;82.25
63033;BME280;49121;38.932;-9.018;2022-09-09T06:51:27;101732.69;;;21.42;82.78
63033;BME280;49121;38.932;-9.018;2022-09-09T06:53:28;101729.75;;;21.49;82.65
63033;BME280;49121;38.932;-9.018;2022-09-09T06:55:29;101734.63;;;21.59;81.37
63033;BME280;49121;38.932;-9.018;2022-09-09T06:57:30;101741.41;;;21.48;81.27
63033;BME280;49121;38.932;-9.018;2022-09-09T07:01:51;101729.25;;;21.39;81.00
63033;BME280;49121;38.932;-9.018;2022-09-09T07:03:55;101750.19;;;21.51;80.80
63033;BME280;49121;38.932;-9.018;2022-09-09T07:05:56;101740.41;;;21.50;80.41
63033;BME280;49121;38.932;-9.018;2022-09-09T07:07:59;101744.97;;;21.69;79.66
63033;BME280;49121;38.932;-9.018;2022-09-09T07:10:00;101747.78;;;21.65;79.89
63033;BME280;49121;38.932;-9.018;2022-09-09T07:12:01;101746.34;;;21.57;80.11
63033;BME280;49121;38.932;-9.018;2022-09-09T07:14:05;101755.00;;;21.63;79.94
63033;BME280;49121;38.932;-9.018;2022-09-09T07:16:12;101760.59;;;21.79;78.78
63033;BME280;49121;38.932;-9.018;2022-09-09T07:20:54;101770.44;;;21.79;78.03
63033;BME280;49121;38.932;-9.018;2022-09-09T07:22:59;101773.50;;;21.70;78.39
63033;BME280;49121;38.932;-9.018;2022-09-09T07:25:00;101775.06;;;21.75;77.96
63033;BME280;49121;38.932;-9.018;2022-09-09T07:27:03;101782.75;;;21.62;78.80
63033;BME280;49121;38.932;-9.018;2022-09-09T07:29:10;101774.72;;;21.62;78.59
63033;BME280;49121;38.932;-9.018;2022-09-09T07:31:19;101775.16;;;21.72;78.39
63033;BME280;49121;38.932;-9.018;2022-09-09T07:33:21;101786.03;;;21.69;79.42
63033;BME280;49121;38.932;-9.018;2022-09-09T07:35:22;101777.69;;;21.77;78.75
63033;BME280;49121;38.932;-9.018;2022-09-09T07:37:23;101778.19;;;21.85;78.47
63033;BME280;49121;38.932;-9.018;2022-09-09T07:39:26;101782.31;;;21.94;78.02
63033;BME280;49121;38.932;-9.018;2022-09-09T07:41:39;101782.66;;;22.07;77.75
63033;BME280;49121;38.932;-9.018;2022-09-09T07:43:42;101780.47;;;22.15;77.23
63033;BME280;49121;38.932;-9.018;2022-09-09T07:45:43;101787.31;;;22.22;76.62
63033;BME280;49121;38.932;-9.018;2022-09-09T07:47:44;101782.31;;;22.35;76.26
63033;BME280;49121;38.932;-9.018;2022-09-09T07:49:46;101788.31;;;22.40;75.93
63033;BME280;49121;38.932;-9.018;2022-09-09T07:51:48;101787.31;;;22.61;75.97
63033;BME280;49121;38.932;-9.018;2022-09-09T07:54:11;101781.81;;;22.83;74.40
63033;BME280;49121;38.932;-9.018;2022-09-09T07:56:30;101776.16;;;22.90;73.61
63033;BME280;49121;38.932;-9.018;2022-09-09T07:58:32;101781.69;;;23.05;73.16
63033;BME280;49121;38.932;-9.018;2022-09-09T08:03:30;101782.56;;;23.42;72.37
63033;BME280;49121;38.932;-9.018;2022-09-09T08:05:31;101783.31;;;23.63;71.85
63033;BME280;49121;38.932;-9.018;2022-09-09T08:07:41;101782.38;;;23.82;70.25
63033;BME280;49121;38.932;-9.018;2022-09-09T08:09:42;101782.34;;;23.99;69.96
63033;BME280;49121;38.932;-9.018;2022-09-09T08:11:52;101782.44;;;24.15;69.23
63033;BME280;49121;38.932;-9.018;2022-09-09T08:13:53;101791.44;;;24.32;68.12
63033;BME280;49121;38.932;-9.018;2022-09-09T08:15:54;101787.75;;;24.17;68.32
63033;BME280;49121;38.932;-9.018;2022-09-09T08:17:56;101786.47;;;24.06;68.58
63033;BME280;49121;38.932;-9.018;2022-09-09T08:19:57;101789.84;;;24.10;68.44
63033;BME280;49121;38.932;-9.018;2022-09-09T08:22:02;101790.75;;;24.11;68.80
63033;BME280;49121;38.932;-9.018;2022-09-09T08:24:05;101796.50;;;24.20;67.74
63033;BME280;49121;38.932;-9.018;2022-09-09T08:26:13;101805.22;;;24.25;68.31
63033;BME280;49121;38.932;-9.018;2022-09-09T08:28:14;101800.69;;;24.26;68.02
63033;BME280;49121;38.932;-9.018;2022-09-09T08:30:15;101807.03;;;24.07;67.93
63033;BME280;49121;38.932;-9.018;2022-09-09T08:32:15;101799.91;;;23.72;69.06
63033;BME280;49121;38.932;-9.018;2022-09-09T08:34:18;101800.06;;;23.68;69.99
63033;BME280;49121;38.932;-9.018;2022-09-09T08:36:24;101807.25;;;23.68;70.25
63033;BME280;49121;38.932;-9.018;2022-09-09T08:38:26;101797.00;;;23.94;69.19
63033;BME280;49121;38.932;-9.018;2022-09-09T08:40:32;101797.56;;;23.83;69.16
63033;BME280;49121;38.932;-9.018;2022-09-09T08:42:38;101805.69;;;24.16;68.73
63033;BME280;49121;38.932;-9.018;2022-09-09T08:45:09;101800.19;;;24.35;67.47
63033;BME280;49121;38.932;-9.018;2022-09-09T08:51:41;101797.72;;;25.29;64.25
63033;BME280;49121;38.932;-9.018;2022-09-09T08:53:47;101794.53;;;25.22;64.48
63033;BME280;49121;38.932;-9.018;2022-09-09T08:55:58;101798.72;;;25.58;63.97
63033;BME280;49121;38.932;-9.018;2022-09-09T08:58:47;101808.31;;;26.08;61.38
63033;BME280;49121;38.932;-9.018;2022-09-09T09:10:38;101811.28;;;25.74;62.23
63033;BME280;49121;38.932;-9.018;2022-09-09T09:12:46;101813.50;;;25.67;61.61
63033;BME280;49121;38.932;-9.018;2022-09-09T09:14:50;101820.13;;;25.91;61.03
63033;BME280;49121;38.932;-9.018;2022-09-09T09:17:02;101815.72;;;25.28;62.04
63033;BME280;49121;38.932;-9.018;2022-09-09T09:19:04;101818.41;;;24.81;64.54
63033;BME280;49121;38.932;-9.018;2022-09-09T09:23:47;101832.31;;;25.21;64.06
63033;BME280;49121;38.932;-9.018;2022-09-09T09:25:50;101821.19;;;25.27;63.85
63033;BME280;49121;38.932;-9.018;2022-09-09T09:28:02;101829.13;;;25.76;62.26
63033;BME280;49121;38.932;-9.018;2022-09-09T09:30:17;101823.59;;;25.94;61.61
63033;BME280;49121;38.932;-9.018;2022-09-09T09:32:19;101835.38;;;25.77;62.44
63033;BME280;49121;38.932;-9.018;2022-09-09T09:34:22;101838.84;;;25.79;62.26
63033;BME280;49121;38.932;-9.018;2022-09-09T09:36:34;101836.97;;;25.65;62.74
63033;BME280;49121;38.932;-9.018;2022-09-09T09:38:37;101840.81;;;25.61;62.71
63033;BME280;49121;38.932;-9.018;2022-09-09T09:40:51;101836.56;;;25.57;62.31
63033;BME280;49121;38.932;-9.018;2022-09-09T09:42:59;101849.56;;;26.10;60.19
63033;BME280;49121;38.932;-9.018;2022-09-09T09:45:42;101840.16;;;26.32;59.35
63033;BME280;49121;38.932;-9.018;2022-09-09T09:47:43;101860.69;;;26.35;59.22
63033;BME280;49121;38.932;-9.018;2022-09-09T09:49:59;101846.16;;;26.51;58.80
63033;BME280;49121;38.932;-9.018;2022-09-09T09:52:06;101848.91;;;26.80;57.95
63033;BME280;49121;38.932;-9.018;2022-09-09T09:54:25;101862.28;;;26.82;57.30
63033;BME280;49121;38.932;-9.018;2022-09-09T09:56:31;101858.34;;;26.59;58.79
63033;BME280;49121;38.932;-9.018;2022-09-09T10:00:53;101850.03;;;26.90;57.08
63033;BME280;49121;38.932;-9.018;2022-09-09T10:02:59;101851.09;;;27.02;57.01
63033;BME280;49121;38.932;-9.018;2022-09-09T10:07:19;101848.75;;;26.24;58.93
63033;BME280;49121;38.932;-9.018;2022-09-09T10:09:27;101865.50;;;26.74;57.60
63033;BME280;49121;38.932;-9.018;2022-09-09T10:11:50;101863.91;;;26.99;56.51
63033;BME280;49121;38.932;-9.018;2022-09-09T10:14:04;101849.31;;;27.16;55.31
63033;BME280;49121;38.932;-9.018;2022-09-09T10:18:35;101844.91;;;27.42;54.42
63033;BME280;49121;38.932;-9.018;2022-09-09T10:20:54;101839.19;;;27.46;54.74
63033;BME280;49121;38.932;-9.018;2022-09-09T10:35:10;101829.56;;;27.01;56.81
63033;BME280;49121;38.932;-9.018;2022-09-09T10:39:41;101831.09;;;26.90;57.00
63033;BME280;49121;38.932;-9.018;2022-09-09T10:42:09;101839.13;;;26.78;56.89
63033;BME280;49121;38.932;-9.018;2022-09-09T10:52:01;101805.16;;;26.45;57.47
63033;BME280;49121;38.932;-9.018;2022-09-09T10:54:00;101825.44;;;26.66;56.96
63033;BME280;49121;38.932;-9.018;2022-09-09T10:56:09;101826.31;;;26.67;57.30
63033;BME280;49121;38.932;-9.018;2022-09-09T10:58:32;101819.53;;;26.88;56.89
63033;BME280;49121;38.932;-9.018;2022-09-09T11:00:43;101809.63;;;27.16;55.95
63033;BME280;49121;38.932;-9.018;2022-09-09T11:03:01;101809.16;;;27.24;55.25
63033;BME280;49121;38.932;-9.018;2022-09-09T11:05:24;101789.09;;;26.99;55.56
63033;BME280;49121;38.932;-9.018;2022-09-09T11:07:41;101801.44;;;27.18;55.20
63033;BME280;49121;38.932;-9.018;2022-09-09T11:09:50;101798.03;;;27.28;55.18
63033;BME280;49121;38.932;-9.018;2022-09-09T11:11:56;101802.31;;;27.45;53.48
63033;BME280;49121;38.932;-9.018;2022-09-09T11:16:24;101791.91;;;27.39;54.23
63033;BME280;49121;38.932;-9.018;2022-09-09T11:18:29;101789.06;;;27.28;54.16
63033;BME280;49121;38.932;-9.018;2022-09-09T11:20:29;101790.97;;;27.40;54.50
63033;BME280;49121;38.932;-9.018;2022-09-09T11:24:58;101796.28;;;27.54;52.55
63033;BME280;49121;38.932;-9.018;2022-09-09T11:27:02;101787.00;;;27.59;52.41
63033;BME280;49121;38.932;-9.018;2022-09-09T11:29:17;101786.81;;;27.74;52.24
63033;BME280;49121;38.932;-9.018;2022-09-09T11:31:46;101782.88;;;27.93;51.94
63033;BME280;49121;38.932;-9.018;2022-09-09T11:36:35;101791.09;;;28.04;50.85
63033;BME280;49121;38.932;-9.018;2022-09-09T11:38:49;101787.66;;;28.15;50.36
63033;BME280;49121;38.932;-9.018;2022-09-09T11:41:09;101784.50;;;28.21;50.25
63033;BME280;49121;38.932;-9.018;2022-09-09T11:43:12;101782.00;;;28.18;50.33
63033;BME280;49121;38.932;-9.018;2022-09-09T11:45:25;101776.50;;;28.32;50.04
63033;BME280;49121;38.932;-9.018;2022-09-09T11:47:30;101772.28;;;28.16;52.59
63033;BME280;49121;38.932;-9.018;2022-09-09T11:51:38;101765.25;;;28.00;54.57
63033;BME280;49121;38.932;-9.018;2022-09-09T11:56:24;101767.44;;;27.81;55.58
63033;BME280;49121;38.932;-9.018;2022-09-09T11:58:27;101767.88;;;27.74;55.08
63033;BME280;49121;38.932;-9.018;2022-09-09T12:00:39;101760.31;;;27.80;54.89
63033;BME280;49121;38.932;-9.018;2022-09-09T12:02:48;101759.69;;;28.02;54.48
63033;BME280;49121;38.932;-9.018;2022-09-09T12:07:27;101755.38;;;27.86;54.25
63033;BME280;49121;38.932;-9.018;2022-09-09T12:09:58;101746.56;;;27.83;54.37
63033;BME280;49121;38.932;-9.018;2022-09-09T12:12:22;101758.50;;;28.19;53.26
63033;BME280;49121;38.932;-9.018;2022-09-09T12:14:37;101755.03;;;28.42;52.59
63033;BME280;49121;38.932;-9.018;2022-09-09T12:16:38;101765.75;;;28.57;52.11
63033;BME280;49121;38.932;-9.018;2022-09-09T12:18:40;101749.41;;;28.45;52.35
63033;BME280;49121;38.932;-9.018;2022-09-09T12:20:57;101756.53;;;28.46;52.76
63033;BME280;49121;38.932;-9.018;2022-09-09T12:30:12;101739.53;;;28.31;52.91
63033;BME280;49121;38.932;-9.018;2022-09-09T12:32:24;101740.09;;;28.37;52.39
63033;BME280;49121;38.932;-9.018;2022-09-09T12:34:46;101735.09;;;28.56;51.73
63033;BME280;49121;38.932;-9.018;2022-09-09T12:36:54;101732.53;;;28.79;51.36
63033;BME280;49121;38.932;-9.018;2022-09-09T12:38:59;101731.03;;;28.74;51.01
63033;BME280;49121;38.932;-9.018;2022-09-09T12:41:22;101735.81;;;28.71;51.50
63033;BME280;49121;38.932;-9.018;2022-09-09T12:43:26;101722.53;;;28.42;52.16
63033;BME280;49121;38.932;-9.018;2022-09-09T12:45:45;101718.31;;;28.51;52.11
63033;BME280;49121;38.932;-9.018;2022-09-09T12:47:50;101724.38;;;28.54;52.01
63033;BME280;49121;38.932;-9.018;2022-09-09T12:49:52;101713.53;;;28.54;52.03
63033;BME280;49121;38.932;-9.018;2022-09-09T12:51:55;101711.47;;;28.45;52.28
63033;BME280;49121;38.932;-9.018;2022-09-09T12:53:58;101696.94;;;28.46;52.90
63033;BME280;49121;38.932;-9.018;2022-09-09T12:56:03;101698.00;;;28.69;52.04
63033;BME280;49121;38.932;-9.018;2022-09-09T12:58:06;101690.69;;;28.83;51.18
63033;BME280;49121;38.932;-9.018;2022-09-09T13:02:46;101681.84;;;28.92;51.04
63033;BME280;49121;38.932;-9.018;2022-09-09T13:04:48;101687.41;;;28.90;50.65
63033;BME280;49121;38.932;-9.018;2022-09-09T13:06:50;101683.41;;;29.07;51.06
63033;BME280;49121;38.932;-9.018;2022-09-09T13:08:53;101686.72;;;29.35;50.35
63033;BME280;49121;38.932;-9.018;2022-09-09T13:11:00;101682.22;;;29.47;49.87
63033;BME280;49121;38.932;-9.018;2022-09-09T13:13:03;101688.28;;;29.50;49.52